Time;durP1;ratioP1;P1;durP2;ratioP2;P2;SDS_P1;SDS_P2;PMS_P1;PMS_P2;Temp;Humidity;BMP_temperature;BMP_pressure;BME280_temperature;BME280_humidity;BME280_pressure;Samples;Min_cycle;Max_cycle;Signal;HPM_P1;HPM_P2
2022/04/02 00:00:58;;;;;;;4.50;2.08;;;0.50;99.90;;;;;;5111634;27;20043;-82
2022/04/02 00:03:24;;;;;;;4.45;2.03;;;0.50;99.90;;;;;;5112202;27;20135;-82
2022/04/02 00:05:49;;;;;;;5.65;2.03;;;0.50;99.90;;;;;;5095421;27;20078;-83
2022/04/02 00:08:16;;;;;;;9.05;2.22;;;0.50;99.90;;;;;;5077323;27;20043;-82
2022/04/02 00:10:41;;;;;;;6.45;1.95;;;0.50;99.90;;;;;;5095916;27;20043;-81
2022/04/02 00:13:07;;;;;;;5.63;2.10;;;0.50;99.90;;;;;;5110669;27;20413;-82
2022/04/02 00:15:33;;;;;;;9.10;2.45;;;0.50;99.90;;;;;;5112711;27;20565;-83
2022/04/02 00:17:59;;;;;;;9.38;2.80;;;0.50;99.90;;;;;;5111527;27;20138;-81
2022/04/02 00:20:25;;;;;;;6.65;2.95;;;0.50;99.90;;;;;;5111563;27;20492;-81
2022/04/02 00:25:35;;;;;;;7.03;2.22;;;0.50;99.90;;;;;;5113855;27;20107;-83
2022/04/02 00:28:01;;;;;;;2.53;1.73;;;0.50;99.90;;;;;;5112227;27;20424;-81
2022/04/02 00:30:27;;;;;;;11.38;1.90;;;0.50;99.90;;;;;;5110964;27;20905;-80
2022/04/02 00:32:52;;;;;;;3.70;1.52;;;0.50;99.90;;;;;;5111689;27;20043;-81
2022/04/02 00:35:18;;;;;;;2.22;1.27;;;0.50;99.90;;;;;;5077531;27;20124;-80
2022/04/02 00:37:44;;;;;;;2.83;1.88;;;-0.50;99.90;;;;;;5129527;27;20074;-81
2022/04/02 00:40:10;;;;;;;4.03;1.73;;;0.60;99.90;;;;;;5111715;27;20130;-81
2022/04/02 00:42:36;;;;;;;2.55;1.33;;;0.60;99.90;;;;;;5110384;27;20044;-81
2022/04/02 00:45:02;;;;;;;4.05;2.20;;;0.60;99.90;;;;;;5112102;27;20070;-81
2022/04/02 00:47:28;;;;;;;4.93;2.10;;;0.60;99.90;;;;;;5110312;27;20577;-82
2022/04/02 00:49:54;;;;;;;4.18;1.90;;;0.70;99.90;;;;;;5111112;27;20084;-82
2022/04/02 00:52:21;;;;;;;3.75;1.60;;;0.70;99.90;;;;;;5077012;27;20102;-81
2022/04/02 00:54:49;;;;;;;6.60;2.33;;;0.70;99.90;;;;;;5110577;27;20505;-81
2022/04/02 00:57:15;;;;;;;6.13;2.38;;;2.20;99.90;;;;;;5111962;27;20045;-81
2022/04/02 00:59:41;;;;;;;4.20;1.98;;;0.80;99.90;;;;;;5109810;27;20077;-81
2022/04/02 01:02:07;;;;;;;3.38;1.48;;;0.70;99.90;;;;;;5077984;27;20047;-81
2022/04/02 01:04:33;;;;;;;5.65;1.65;;;0.70;99.90;;;;;;5092743;27;20054;-80
2022/04/02 01:07:00;;;;;;;6.00;2.03;;;0.70;99.90;;;;;;5093938;27;20046;-81
2022/04/02 01:09:25;;;;;;;4.68;2.28;;;0.70;99.90;;;;;;5128823;27;20509;-80
2022/04/02 01:11:52;;;;;;;2.85;1.35;;;0.60;99.90;;;;;;5129512;27;20039;-81
2022/04/02 01:14:19;;;;;;;4.40;1.80;;;0.60;99.90;;;;;;5129769;27;20152;-81
2022/04/02 01:16:45;;;;;;;7.97;2.92;;;0.60;99.90;;;;;;5092374;27;20510;-82
2022/04/02 01:19:11;;;;;;;3.97;1.85;;;0.60;99.90;;;;;;5129982;27;20043;-82
2022/04/02 01:21:37;;;;;;;4.78;1.40;;;0.60;99.90;;;;;;5109468;27;20144;-81
2022/04/02 01:24:03;;;;;;;3.60;1.73;;;0.60;99.90;;;;;;5129580;27;20063;-81
2022/04/02 01:26:29;;;;;;;8.23;1.48;;;0.60;99.90;;;;;;5110207;27;20043;-82
2022/04/02 01:28:59;;;;;;;2.97;1.27;;;0.60;99.90;;;;;;5128629;27;20129;-82
2022/04/02 01:31:26;;;;;;;4.50;1.63;;;0.60;99.90;;;;;;5111336;27;20375;-82
2022/04/02 01:33:53;;;;;;;2.78;1.25;;;0.60;99.90;;;;;;5109844;27;20046;-82
2022/04/02 01:36:20;;;;;;;2.05;1.15;;;0.60;99.90;;;;;;5094252;27;20398;-81
2022/04/02 01:38:46;;;;;;;5.18;1.65;;;1.10;99.90;;;;;;5109421;27;20050;-81
2022/04/02 01:41:13;;;;;;;2.33;1.35;;;0.60;99.90;;;;;;5093287;27;20075;-82
2022/04/02 01:43:39;;;;;;;3.20;1.50;;;0.60;99.90;;;;;;5128521;27;20035;-82
2022/04/02 01:46:05;;;;;;;4.68;1.20;;;0.60;99.90;;;;;;5110250;27;20458;-81
2022/04/02 01:48:32;;;;;;;4.70;1.65;;;0.60;99.90;;;;;;5110674;27;20080;-81
2022/04/02 01:50:58;;;;;;;4.68;1.20;;;0.50;99.90;;;;;;5109208;27;20051;-81
2022/04/02 01:53:26;;;;;;;3.95;1.70;;;0.50;99.90;;;;;;5093718;27;20039;-81
2022/04/02 01:55:52;;;;;;;2.08;1.23;;;0.50;99.90;;;;;;5109283;27;20414;-81
2022/04/02 01:58:18;;;;;;;3.22;1.38;;;1.10;99.90;;;;;;5093051;27;20043;-81
2022/04/02 02:00:46;;;;;;;4.60;1.77;;;0.50;99.90;;;;;;5128166;27;20149;-81
2022/04/02 02:03:12;;;;;;;3.45;1.10;;;0.50;99.90;;;;;;5128256;27;20049;-81
2022/04/02 02:05:39;;;;;;;5.10;1.40;;;0.50;99.90;;;;;;5110021;27;20051;-81
2022/04/02 02:08:06;;;;;;;2.55;1.20;;;0.40;99.90;;;;;;5127641;27;20096;-81
2022/04/02 02:10:32;;;;;;;3.05;1.35;;;0.40;99.90;;;;;;5128854;27;20042;-81
2022/04/02 02:12:59;;;;;;;2.17;1.30;;;0.40;99.90;;;;;;5127563;27;20110;-81
2022/04/02 02:15:26;;;;;;;3.30;1.77;;;0.40;99.90;;;;;;5109909;27;20409;-81
2022/04/02 02:17:53;;;;;;;4.53;1.42;;;0.40;99.90;;;;;;5109472;27;20082;-81
2022/04/02 02:20:20;;;;;;;6.65;1.15;;;0.40;99.90;;;;;;5109615;27;20368;-80
2022/04/02 02:22:47;;;;;;;3.60;1.55;;;0.40;99.90;;;;;;5128934;27;20141;-81
2022/04/02 02:25:15;;;;;;;5.10;1.35;;;0.40;99.90;;;;;;5108533;28;20565;-81
2022/04/02 02:27:42;;;;;;;8.48;4.45;;;0.30;99.90;;;;;;5093155;28;20549;-81
2022/04/02 02:30:10;;;;;;;3.97;1.52;;;0.30;99.90;;;;;;5091744;28;20039;-81
2022/04/02 02:32:39;;;;;;;2.88;1.55;;;0.30;99.90;;;;;;5128405;27;20096;-80
2022/04/02 02:38:01;;;;;;;3.72;1.45;;;0.20;99.90;;;;;;5111905;27;20076;-81
2022/04/02 02:40:26;;;;;;;3.30;1.70;;;0.10;99.90;;;;;;5093455;28;20112;-81
2022/04/02 02:42:52;;;;;;;3.20;1.30;;;0.10;99.90;;;;;;5108658;28;20039;-84
2022/04/02 02:45:18;;;;;;;3.17;1.35;;;0.00;99.90;;;;;;5109466;28;20086;-81
2022/04/02 02:47:43;;;;;;;3.97;1.27;;;-0.10;99.90;;;;;;5108685;28;20479;-81
2022/04/02 02:50:09;;;;;;;7.40;1.42;;;-0.20;99.90;;;;;;5108786;28;20146;-81
2022/04/02 02:52:35;;;;;;;2.97;1.30;;;-0.20;99.90;;;;;;5129559;27;20100;-81
2022/04/02 02:55:00;;;;;;;3.00;1.65;;;-0.30;99.90;;;;;;5112870;27;20080;-81
2022/04/02 02:57:26;;;;;;;2.40;1.33;;;-0.40;99.90;;;;;;5114404;27;20040;-81
2022/04/02 02:59:52;;;;;;;4.95;1.80;;;-0.40;99.90;;;;;;5112413;27;20527;-82
2022/04/02 03:02:17;;;;;;;3.40;1.65;;;-0.50;99.90;;;;;;5097105;27;20059;-81
2022/04/02 03:04:43;;;;;;;3.88;1.58;;;-0.60;99.90;;;;;;5112700;27;20043;-80
2022/04/02 03:07:09;;;;;;;4.85;1.63;;;-0.60;99.90;;;;;;5113210;27;20375;-81
2022/04/02 03:09:35;;;;;;;3.20;1.60;;;-0.70;99.90;;;;;;5062756;27;20416;-81
2022/04/02 03:12:00;;;;;;;2.65;1.40;;;-0.60;99.90;;;;;;5112356;27;20073;-81
2022/04/02 03:14:26;;;;;;;2.90;1.35;;;-0.80;99.90;;;;;;5114208;27;20071;-81
2022/04/02 03:16:52;;;;;;;4.18;1.88;;;-0.80;99.90;;;;;;5094863;27;20072;-81
2022/04/02 03:19:17;;;;;;;6.07;1.90;;;-0.80;99.90;;;;;;5095765;27;20482;-81
2022/04/02 03:21:43;;;;;;;5.70;1.90;;;-0.80;99.90;;;;;;5094424;27;20046;-81
2022/04/02 03:24:10;;;;;;;3.10;1.20;;;-0.90;99.90;;;;;;5131178;27;20084;-81
2022/04/02 03:26:36;;;;;;;4.53;1.75;;;-0.90;99.90;;;;;;5112580;27;20047;-81
2022/04/02 03:29:02;;;;;;;4.38;2.00;;;-0.90;99.90;;;;;;5130367;27;20140;-81
2022/04/02 03:31:28;;;;;;;3.72;1.83;;;-0.60;99.90;;;;;;5131885;27;20035;-81
2022/04/02 03:33:54;;;;;;;3.70;1.90;;;-0.90;99.90;;;;;;5094130;27;20118;-81
2022/04/02 03:36:19;;;;;;;6.82;1.35;;;-1.50;99.90;;;;;;5131547;27;20129;-81
2022/04/02 03:38:45;;;;;;;4.60;1.70;;;-0.90;99.90;;;;;;5130399;27;20039;-80
2022/04/02 03:41:13;;;;;;;4.78;1.35;;;-1.00;99.90;;;;;;5131038;27;20482;-81
2022/04/02 03:43:38;;;;;;;3.92;1.70;;;-1.00;99.90;;;;;;5130825;27;20043;-81
2022/04/02 03:48:48;;;;;;;4.13;1.20;;;-0.90;99.90;;;;;;5113054;27;20047;-81
2022/04/02 03:51:14;;;;;;;4.03;1.33;;;-0.90;99.90;;;;;;5110820;27;20383;-81
2022/04/02 03:53:39;;;;;;;5.07;1.35;;;-0.90;99.90;;;;;;5130970;27;20324;-81
2022/04/02 03:56:07;;;;;;;2.28;1.25;;;-0.80;99.90;;;;;;5130165;27;20122;-81
2022/04/02 03:58:32;;;;;;;2.47;1.08;;;-0.90;99.90;;;;;;5130592;27;20039;-81
2022/04/02 04:00:58;;;;;;;4.80;1.20;;;-0.80;99.90;;;;;;5130631;27;20471;-81
2022/04/02 04:03:24;;;;;;;3.10;1.00;;;-0.70;99.90;;;;;;5110489;27;20050;-81
2022/04/02 04:05:49;;;;;;;2.38;1.00;;;0.80;99.90;;;;;;5112584;27;20042;-81
2022/04/02 04:08:15;;;;;;;4.25;1.10;;;-0.70;99.90;;;;;;5129226;27;20050;-80
2022/04/02 04:10:41;;;;;;;1.55;0.65;;;-0.60;99.90;;;;;;5111905;27;20493;-82
2022/04/02 04:13:07;;;;;;;2.72;0.95;;;-0.60;99.90;;;;;;5110461;27;20080;-81
2022/04/02 04:15:33;;;;;;;2.15;0.80;;;-0.60;99.90;;;;;;5112309;27;20099;-81
2022/04/02 04:17:59;;;;;;;5.78;1.10;;;0.70;99.90;;;;;;5112138;27;20741;-81
2022/04/02 04:20:25;;;;;;;1.98;1.00;;;-0.60;99.90;;;;;;5110650;27;20389;-81
2022/04/02 04:22:52;;;;;;;3.53;1.17;;;0.90;99.90;;;;;;5131139;27;20371;-81
2022/04/02 04:25:17;;;;;;;4.68;0.93;;;-0.60;99.90;;;;;;5109985;27;20047;-81
2022/04/02 04:27:43;;;;;;;3.92;1.42;;;0.00;99.90;;;;;;5112045;27;20039;-82
2022/04/02 04:30:10;;;;;;;4.03;1.00;;;-0.50;99.90;;;;;;5129053;27;20035;-81
2022/04/02 04:32:36;;;;;;;6.40;1.13;;;-0.40;99.90;;;;;;5129962;27;20035;-82
2022/04/02 04:35:02;;;;;;;4.78;1.23;;;-0.40;99.90;;;;;;5111904;27;20080;-81
2022/04/02 04:37:28;;;;;;;4.18;1.20;;;0.30;99.90;;;;;;5110269;27;20094;-81
2022/04/02 04:39:54;;;;;;;3.83;1.10;;;-0.20;99.90;;;;;;5130126;27;20075;-81
2022/04/02 04:42:21;;;;;;;7.38;1.10;;;-0.10;99.90;;;;;;5128338;27;20039;-81
2022/04/02 04:44:47;;;;;;;3.78;1.27;;;0.00;99.90;;;;;;5129974;27;20051;-81
2022/04/02 04:47:13;;;;;;;2.88;1.33;;;0.00;99.90;;;;;;5128946;27;20039;-81
2022/04/02 04:49:39;;;;;;;3.22;1.00;;;0.40;99.90;;;;;;5129461;27;20051;-81
2022/04/02 04:52:05;;;;;;;1.90;0.95;;;0.20;99.90;;;;;;5129160;27;20388;-81
2022/04/02 04:54:31;;;;;;;5.20;1.95;;;0.40;99.90;;;;;;5128651;27;20042;-81
2022/04/02 04:56:56;;;;;;;5.78;1.33;;;0.50;99.90;;;;;;5130177;27;20107;-81
2022/04/02 04:59:22;;;;;;;4.28;1.40;;;0.60;99.90;;;;;;5128174;27;20039;-82
2022/04/02 05:01:48;;;;;;;2.53;1.23;;;0.60;99.90;;;;;;5111437;27;20047;-81
2022/04/02 05:04:13;;;;;;;8.48;1.63;;;0.70;99.90;;;;;;5128408;27;20043;-81
2022/04/02 05:06:40;;;;;;;6.82;1.52;;;0.70;99.90;;;;;;5128977;27;20490;-81
2022/04/02 05:09:06;;;;;;;2.75;1.55;;;0.70;99.90;;;;;;5128695;27;20051;-81
2022/04/02 05:11:32;;;;;;;3.80;1.50;;;0.70;99.90;;;;;;5110096;27;20042;-82
2022/04/02 05:13:58;;;;;;;3.75;1.52;;;0.70;99.90;;;;;;5129888;27;20118;-81
2022/04/02 05:16:26;;;;;;;4.03;1.38;;;0.70;99.90;;;;;;5126801;27;20490;-81
2022/04/02 05:18:52;;;;;;;3.28;1.25;;;0.90;99.90;;;;;;5129414;27;20047;-81
2022/04/02 05:21:18;;;;;;;3.10;1.48;;;0.70;99.90;;;;;;5128059;27;20047;-81
2022/04/02 05:23:43;;;;;;;6.20;1.35;;;0.70;99.90;;;;;;5129091;27;20088;-81
2022/04/02 05:26:09;;;;;;;5.03;1.48;;;2.10;99.90;;;;;;5128610;27;20500;-81
2022/04/02 05:28:35;;;;;;;2.97;1.27;;;0.70;99.90;;;;;;5128395;27;20054;-81
2022/04/02 05:31:01;;;;;;;9.88;2.30;;;0.70;99.90;;;;;;5129601;27;20380;-81
2022/04/02 05:33:27;;;;;;;5.43;2.38;;;0.70;99.90;;;;;;5109069;27;20043;-81
2022/04/02 05:35:52;;;;;;;9.05;1.80;;;0.70;99.90;;;;;;5110600;27;20039;-81
2022/04/02 05:38:18;;;;;;;4.15;1.55;;;1.10;99.90;;;;;;5109628;27;20117;-82
2022/04/02 05:40:44;;;;;;;3.63;1.85;;;0.80;99.90;;;;;;5129017;27;20439;-82
2022/04/02 05:43:10;;;;;;;5.03;1.45;;;0.80;99.90;;;;;;5092790;27;20104;-82
2022/04/02 05:45:36;;;;;;;3.55;1.85;;;0.90;99.90;;;;;;5110384;27;20035;-81
2022/04/02 05:48:02;;;;;;;7.53;1.55;;;1.00;99.90;;;;;;5110688;27;20114;-82
2022/04/02 05:50:28;;;;;;;2.85;1.42;;;1.10;99.90;;;;;;5126994;27;20127;-81
2022/04/02 05:52:54;;;;;;;4.63;1.58;;;2.30;99.90;;;;;;5129333;27;20147;-81
2022/04/02 05:55:20;;;;;;;3.35;2.17;;;2.20;99.90;;;;;;5127462;27;20035;-81
2022/04/02 05:57:47;;;;;;;5.00;1.80;;;2.50;99.90;;;;;;5110235;27;20486;-80
2022/04/02 06:00:16;;;;;;;3.35;0.90;;;2.70;99.90;;;;;;5128133;27;20051;-81
2022/04/02 06:02:43;;;;;;;6.55;1.38;;;1.40;99.90;;;;;;5109044;27;20047;-80
2022/04/02 06:05:11;;;;;;;5.30;1.40;;;1.50;99.90;;;;;;5110493;27;20075;-80
2022/04/02 06:07:36;;;;;;;10.32;1.52;;;1.50;99.90;;;;;;5126870;27;20043;-81
2022/04/02 06:10:04;;;;;;;2.10;1.20;;;1.60;99.90;;;;;;5128991;27;20146;-81
2022/04/02 06:12:31;;;;;;;4.32;1.60;;;2.10;99.90;;;;;;5127460;27;20067;-81
2022/04/02 06:14:58;;;;;;;4.32;1.55;;;1.70;99.90;;;;;;5128126;27;20104;-83
2022/04/02 06:17:23;;;;;;;5.25;1.40;;;1.70;99.90;;;;;;5127582;27;20090;-81
2022/04/02 06:19:49;;;;;;;3.53;1.10;;;1.70;99.90;;;;;;5109067;27;20135;-81
2022/04/02 06:22:15;;;;;;;4.53;1.75;;;1.80;99.90;;;;;;5110006;27;20043;-82
2022/04/02 06:24:40;;;;;;;3.60;1.08;;;2.60;99.90;;;;;;5108259;27;20042;-80
2022/04/02 06:27:06;;;;;;;3.97;1.00;;;1.90;99.90;;;;;;5110077;28;20039;-80
2022/04/02 06:29:32;;;;;;;2.15;1.20;;;1.90;99.90;;;;;;5091760;27;20058;-81
2022/04/02 06:31:58;;;;;;;2.67;1.20;;;2.00;99.90;;;;;;5092770;27;20047;-81
2022/04/02 06:34:23;;;;;;;5.05;1.23;;;2.00;99.90;;;;;;5108286;28;20047;-80
2022/04/02 06:36:49;;;;;;;5.07;1.33;;;2.00;99.90;;;;;;5127430;27;20035;-81
2022/04/02 06:39:15;;;;;;;3.80;1.30;;;2.00;99.90;;;;;;5093234;28;20519;-79
2022/04/02 06:41:41;;;;;;;2.53;1.08;;;2.10;99.90;;;;;;5126884;28;20126;-80
2022/04/02 06:44:08;;;;;;;5.20;1.13;;;2.10;99.90;;;;;;5110874;28;20050;-81
2022/04/02 06:46:40;;;;;;;12.13;1.45;;;2.20;99.90;;;;;;5126618;28;20047;-81
2022/04/02 06:49:06;;;;;;;5.55;1.40;;;2.30;99.90;;;;;;5109874;28;20099;-80
2022/04/02 06:51:33;;;;;;;4.30;1.27;;;2.40;99.90;;;;;;5127287;28;20051;-80
2022/04/02 06:53:59;;;;;;;4.18;1.52;;;2.40;99.90;;;;;;5127705;28;20039;-81
2022/04/02 06:56:25;;;;;;;3.95;1.10;;;2.50;99.90;;;;;;5092940;28;20517;-81
2022/04/02 06:58:51;;;;;;;1.80;0.98;;;2.50;99.90;;;;;;5126477;28;20648;-81
2022/04/02 07:01:17;;;;;;;4.88;1.38;;;2.50;99.90;;;;;;5110100;28;20082;-81
2022/04/02 07:03:42;;;;;;;2.67;1.17;;;2.50;99.90;;;;;;5108216;28;20596;-81
2022/04/02 07:06:08;;;;;;;5.32;1.05;;;2.40;99.90;;;;;;5109768;28;20047;-80
2022/04/02 07:08:37;;;;;;;4.88;1.60;;;2.40;99.90;;;;;;5127108;28;20401;-80
2022/04/02 07:11:04;;;;;;;2.20;0.90;;;2.40;99.90;;;;;;5127445;28;20088;-81
2022/04/02 07:13:31;;;;;;;5.45;1.42;;;2.40;99.90;;;;;;5076477;28;20110;-81
2022/04/02 07:15:57;;;;;;;2.38;1.00;;;2.40;99.90;;;;;;5126696;28;20065;-80
2022/04/02 07:18:24;;;;;;;2.85;0.90;;;2.30;99.90;;;;;;5109664;28;20083;-80
2022/04/02 07:20:54;;;;;;;1.83;0.77;;;2.10;99.90;;;;;;5090732;28;20127;-81
2022/04/02 07:23:20;;;;;;;0.73;0.47;;;2.10;99.90;;;;;;5109199;28;20051;-81
2022/04/02 07:25:48;;;;;;;2.58;0.82;;;2.00;99.90;;;;;;5126992;28;20047;-79
2022/04/02 07:28:14;;;;;;;2.22;0.70;;;1.90;99.90;;;;;;5126552;28;20049;-80
2022/04/02 07:30:40;;;;;;;1.58;0.80;;;1.80;99.90;;;;;;5076214;28;20047;-80
2022/04/02 07:33:07;;;;;;;1.17;0.70;;;1.90;99.90;;;;;;5126535;28;20089;-80
2022/04/02 07:35:52;;;;;;;5.25;0.77;;;1.90;99.90;;;;;;5127734;28;20043;-80
2022/04/02 07:38:22;;;;;;;3.80;0.65;;;2.00;99.90;;;;;;5127469;27;20047;-80
2022/04/02 07:41:00;;;;;;;3.95;1.17;;;2.00;99.90;;;;;;5112613;27;20047;-84
2022/04/02 07:43:46;;;;;;;2.42;0.93;;;2.10;99.90;;;;;;5113696;27;20039;-81
2022/04/02 07:46:23;;;;;;;2.97;0.90;;;2.10;99.90;;;;;;5094628;27;20047;-81
2022/04/02 07:48:49;;;;;;;3.22;0.80;;;2.80;99.90;;;;;;5113128;27;20451;-80
2022/04/02 07:51:18;;;;;;;3.28;0.82;;;2.30;99.90;;;;;;5130598;27;20051;-81
2022/04/02 07:53:49;;;;;;;6.35;1.02;;;2.60;99.90;;;;;;5112223;27;20055;-81
2022/04/02 07:56:25;;;;;;;2.22;1.05;;;3.50;99.90;;;;;;5113732;27;20043;-81
2022/04/02 07:58:52;;;;;;;2.20;0.73;;;4.30;99.90;;;;;;5112250;27;20047;-80
2022/04/02 08:01:19;;;;;;;5.90;1.10;;;3.30;99.90;;;;;;5132333;27;20070;-82
2022/04/02 08:03:46;;;;;;;5.00;0.60;;;3.50;99.90;;;;;;5095015;27;20071;-84
2022/04/02 08:06:15;;;;;;;2.38;1.00;;;3.80;99.90;;;;;;5095654;27;20152;-81
2022/04/02 08:08:42;;;;;;;5.05;0.90;;;4.00;99.90;;;;;;5095497;27;20039;-81
2022/04/02 08:11:10;;;;;;;8.40;0.77;;;4.10;99.90;;;;;;5111759;27;20049;-81
2022/04/02 08:13:41;;;;;;;1.50;0.50;;;4.20;99.90;;;;;;5113694;27;20530;-81
2022/04/02 08:16:08;;;;;;;7.53;0.77;;;4.30;99.90;;;;;;5130117;27;20035;-81
2022/04/02 08:18:34;;;;;;;3.50;0.70;;;4.40;99.90;;;;;;5131507;27;20055;-83
2022/04/02 08:21:02;;;;;;;2.40;0.77;;;4.50;99.90;;;;;;5095481;27;20043;-82
2022/04/02 08:23:29;;;;;;;0.93;0.50;;;4.60;99.90;;;;;;5131064;27;20546;-83
2022/04/02 08:26:13;;;;;;;1.88;0.80;;;4.70;99.90;;;;;;5096022;27;20043;-83
2022/04/02 08:29:11;;;;;;;2.50;0.70;;;4.70;99.90;;;;;;5130589;27;20532;-82
2022/04/02 08:31:54;;;;;;;3.20;1.25;;;4.80;99.90;;;;;;5112850;27;20074;-82
2022/04/02 08:34:37;;;;;;;2.33;0.60;;;4.90;99.90;;;;;;5112387;27;20054;-82
2022/04/02 08:37:25;;;;;;;2.97;0.55;;;5.00;99.90;;;;;;5130258;27;20050;-82
2022/04/02 08:40:01;;;;;;;1.83;0.70;;;5.10;99.90;;;;;;5096457;27;20067;-80
2022/04/02 08:42:59;;;;;;;2.22;0.80;;;5.30;99.90;;;;;;5111470;27;20119;-80
2022/04/02 08:45:30;;;;;;;2.08;0.68;;;5.40;99.90;;;;;;5038752;27;20063;-80
2022/04/02 08:48:23;;;;;;;2.92;0.60;;;5.70;99.90;;;;;;5131237;27;20440;-79
2022/04/02 08:50:53;;;;;;;;;;;5.80;99.90;;;;;;5130095;27;20083;-81
2022/04/02 08:53:42;;;;;;;1.30;0.60;;;6.00;99.90;;;;;;5095151;27;19924;-82
2022/04/02 08:56:10;;;;;;;5.95;0.77;;;6.20;99.90;;;;;;5131276;27;20038;-81
2022/04/02 08:58:58;;;;;;;3.95;0.50;;;6.30;99.90;;;;;;5111960;27;20043;-81
2022/04/02 09:01:36;;;;;;;4.60;0.40;;;6.40;96.70;;;;;;5131811;27;20395;-81
2022/04/02 09:04:21;;;;;;;2.95;0.70;;;6.40;99.90;;;;;;5129968;27;20553;-80
2022/04/02 09:07:24;;;;;;;6.47;0.57;;;6.40;99.90;;;;;;5129068;27;20047;-82
2022/04/02 09:10:01;;;;;;;1.58;0.43;;;6.40;95.00;;;;;;5130456;27;20442;-80
2022/04/02 09:12:52;;;;;;;2.40;0.82;;;6.50;96.40;;;;;;5128880;27;20519;-79
2022/04/02 09:15:56;;;;;;;1.58;0.55;;;6.60;94.80;;;;;;5128726;27;20047;-80
2022/04/02 09:18:39;;;;;;;1.73;0.70;;;6.60;91.00;;;;;;5125075;27;20054;-81
2022/04/02 09:21:13;;;;;;;1.15;0.32;;;6.40;94.90;;;;;;5110792;27;20047;-80
2022/04/02 09:24:07;;;;;;;2.65;0.68;;;6.50;95.90;;;;;;5110834;27;20134;-81
2022/04/02 09:26:38;;;;;;;5.72;0.52;;;6.70;88.10;;;;;;5094601;27;20085;-80
2022/04/02 09:29:10;;;;;;;6.47;0.77;;;6.60;95.60;;;;;;5092828;27;20050;-80
2022/04/02 09:32:05;;;;;;;2.05;0.60;;;6.60;95.50;;;;;;5111416;27;20075;-81
2022/04/02 09:34:56;;;;;;;2.20;0.70;;;6.70;89.40;;;;;;5111487;27;20075;-81
2022/04/02 09:37:53;;;;;;;5.50;0.60;;;6.80;89.20;;;;;;5128288;27;20426;-81
2022/04/02 09:40:35;;;;;;;7.25;0.82;;;6.70;85.30;;;;;;5110645;27;20043;-81
2022/04/02 09:43:16;;;;;;;3.70;0.38;;;6.70;90.50;;;;;;5111370;27;20039;-81
2022/04/02 09:45:56;;;;;;;2.88;0.57;;;6.40;85.10;;;;;;5128055;27;20069;-81
2022/04/02 09:48:30;;;;;;;0.80;0.40;;;6.40;90.90;;;;;;5129737;27;20043;-81
2022/04/02 09:50:59;;;;;;;1.67;0.68;;;6.60;90.80;;;;;;5109420;27;20066;-79
2022/04/02 09:53:29;;;;;;;2.28;0.50;;;6.60;91.40;;;;;;5110589;27;20047;-80
2022/04/02 09:56:22;;;;;;;4.97;0.77;;;6.50;90.20;;;;;;5077196;27;20046;-79
2022/04/02 09:59:04;;;;;;;5.65;0.80;;;6.40;90.20;;;;;;5092513;27;20634;-79
2022/04/02 10:01:48;;;;;;;3.67;0.60;;;6.50;89.10;;;;;;5093851;27;20039;-80
2022/04/02 10:04:46;;;;;;;2.33;0.80;;;6.80;88.10;;;;;;5110168;27;20056;-80
2022/04/02 10:07:27;;;;;;;2.70;0.57;;;6.80;78.60;;;;;;5092058;27;20043;-78
2022/04/02 10:09:55;;;;;;;3.67;0.60;;;6.60;79.50;;;;;;5110504;27;20039;-81
2022/04/02 10:12:26;;;;;;;2.13;1.00;;;6.50;84.40;;;;;;5092646;28;20130;-80
2022/04/02 10:14:57;;;;;;;1.25;0.50;;;7.20;86.50;;;;;;5092802;27;20402;-80
2022/04/02 10:17:28;;;;;;;6.45;0.77;;;6.80;87.60;;;;;;5110833;27;20105;-81
2022/04/02 10:19:56;;;;;;;1.83;0.70;;;7.70;80.70;;;;;;5127517;27;20047;-81
2022/04/02 10:22:41;;;;;;;1.33;0.65;;;7.70;74.60;;;;;;5110441;27;20561;-80
2022/04/02 10:25:10;;;;;;;4.15;0.60;;;7.90;71.30;;;;;;5109714;28;20064;-81
2022/04/02 10:27:38;;;;;;;1.00;0.50;;;8.00;74.90;;;;;;5093199;28;20050;-78
2022/04/02 10:30:09;;;;;;;0.75;0.32;;;8.00;73.10;;;;;;5110238;27;20054;-80
2022/04/02 10:35:50;;;;;;;2.25;0.60;;;8.10;70.90;;;;;;5110060;27;20380;-80
2022/04/02 10:38:36;;;;;;;5.93;0.70;;;8.20;73.00;;;;;;5109233;28;20050;-80
2022/04/02 10:41:12;;;;;;;1.60;0.60;;;8.10;65.80;;;;;;5108555;28;20111;-81
2022/04/02 10:43:58;;;;;;;3.75;0.80;;;8.30;69.20;;;;;;5110555;28;20494;-80
2022/04/02 10:46:26;;;;;;;2.83;0.73;;;7.70;68.70;;;;;;5127558;28;20100;-80
2022/04/02 10:48:57;;;;;;;0.90;0.47;;;7.60;71.70;;;;;;5109751;28;20043;-82
2022/04/02 10:51:25;;;;;;;1.77;0.70;;;8.30;69.30;;;;;;5128497;27;20051;-81
2022/04/02 10:54:12;;;;;;;1.50;0.50;;;7.90;69.70;;;;;;5108638;28;20051;-80
2022/04/02 10:56:44;;;;;;;1.52;0.70;;;8.10;64.90;;;;;;5110146;28;20654;-80
2022/04/02 10:59:11;;;;;;;3.25;0.70;;;8.20;66.10;;;;;;5108351;28;20059;-78
2022/04/02 11:01:40;;;;;;;3.90;0.63;;;8.20;63.70;;;;;;5109591;28;20043;-80
2022/04/02 11:04:32;;;;;;;1.70;0.70;;;8.10;62.50;;;;;;5109458;27;20054;-79
2022/04/02 11:06:59;;;;;;;2.13;0.57;;;7.70;63.60;;;;;;5108156;28;20047;-80
2022/04/02 11:09:39;;;;;;;1.67;0.60;;;7.70;65.80;;;;;;5093296;28;20050;-80
2022/04/02 11:12:15;;;;;;;1.77;0.60;;;7.90;66.00;;;;;;5091887;27;20394;-79
2022/04/02 11:14:45;;;;;;;2.10;0.45;;;8.20;64.40;;;;;;5111779;27;20067;-80
2022/04/02 11:17:32;;;;;;;1.33;0.68;;;8.20;61.90;;;;;;5132250;27;20170;-79
2022/04/02 11:20:11;;;;;;;3.28;0.40;;;8.10;61.10;;;;;;5111867;27;20046;-79
2022/04/02 11:22:51;;;;;;;1.20;0.40;;;8.10;61.80;;;;;;5131741;27;20458;-80
2022/04/02 11:25:31;;;;;;;2.58;0.70;;;8.40;61.50;;;;;;5113109;27;20047;-81
2022/04/02 11:28:08;;;;;;;1.77;0.63;;;8.50;61.20;;;;;;5111940;27;20520;-80
2022/04/02 11:30:42;;;;;;;1.85;0.73;;;8.60;60.00;;;;;;5113469;27;20436;-80
2022/04/02 11:33:09;;;;;;;3.38;0.60;;;8.50;59.60;;;;;;5130591;27;20130;-80
2022/04/02 11:35:57;;;;;;;3.72;0.45;;;8.40;58.90;;;;;;5113095;27;20348;-81
2022/04/02 11:38:38;;;;;;;2.30;0.50;;;8.10;60.30;;;;;;5113499;27;20070;-81
2022/04/02 11:41:27;;;;;;;1.73;0.75;;;7.90;60.00;;;;;;5130223;27;20054;-80
2022/04/02 11:44:06;;;;;;;1.95;0.57;;;7.80;60.90;;;;;;5095883;27;20050;-81
2022/04/02 11:46:59;;;;;;;2.67;0.55;;;7.70;60.80;;;;;;5130841;27;20047;-81
2022/04/02 11:49:33;;;;;;;;;;;7.50;60.50;;;;;;5130902;27;20439;-81
2022/04/02 11:52:07;;;;;;;3.17;0.50;;;7.50;59.10;;;;;;5112938;27;19926;-80
2022/04/02 11:54:42;;;;;;;4.35;0.70;;;7.50;63.30;;;;;;5111629;27;20086;-80
2022/04/02 11:57:08;;;;;;;1.23;0.60;;;7.70;65.80;;;;;;5095601;27;20050;-81
2022/04/02 11:59:35;;;;;;;1.90;0.68;;;7.70;66.70;;;;;;5112548;27;20043;-81
2022/04/02 12:02:02;;;;;;;1.67;0.63;;;7.70;67.30;;;;;;5130415;27;20390;-81
2022/04/02 12:04:28;;;;;;;2.33;0.47;;;8.20;67.60;;;;;;5113518;27;20039;-81
2022/04/02 12:07:04;;;;;;;2.40;0.68;;;7.70;68.40;;;;;;5129933;27;20046;-81
2022/04/02 12:09:29;;;;;;;1.60;0.57;;;7.60;65.60;;;;;;5131281;27;20036;-82
2022/04/02 12:12:02;;;;;;;1.42;0.55;;;7.50;63.30;;;;;;5077979;27;20563;-82
2022/04/02 12:14:33;;;;;;;0.95;0.50;;;7.40;63.00;;;;;;5131103;27;20118;-82
2022/04/02 12:17:05;;;;;;;0.80;0.50;;;7.30;64.60;;;;;;5112579;27;20051;-80
2022/04/02 12:19:37;;;;;;;1.58;0.60;;;7.10;63.50;;;;;;5094506;27;20442;-79
2022/04/02 12:22:14;;;;;;;2.58;0.60;;;7.00;64.90;;;;;;5112523;27;20043;-79
2022/04/02 12:24:47;;;;;;;3.05;0.70;;;7.50;66.10;;;;;;5093903;27;20051;-79
2022/04/02 12:27:17;;;;;;;2.20;0.65;;;7.10;65.50;;;;;;5112010;27;20210;-80
2022/04/02 12:29:49;;;;;;;3.78;0.95;;;7.20;65.60;;;;;;5130997;27;20062;-83
2022/04/02 12:32:35;;;;;;;5.55;0.60;;;7.30;64.30;;;;;;5129349;27;20100;-80
2022/04/02 12:35:05;;;;;;;2.95;0.80;;;7.40;64.80;;;;;;5112162;27;20039;-82
2022/04/02 12:37:40;;;;;;;4.28;0.50;;;7.30;62.90;;;;;;5094673;27;20126;-81
2022/04/02 12:40:26;;;;;;;2.47;0.60;;;7.40;62.70;;;;;;5111176;27;20149;-81
2022/04/02 12:43:04;;;;;;;5.72;0.70;;;7.90;60.30;;;;;;5130916;27;20036;-81
2022/04/02 12:45:31;;;;;;;5.47;0.63;;;8.20;60.90;;;;;;5129122;27;20482;-81
2022/04/02 12:47:58;;;;;;;1.50;0.65;;;8.20;58.10;;;;;;5094832;27;20047;-81
2022/04/02 12:50:25;;;;;;;0.55;0.25;;;8.20;58.00;;;;;;5110688;27;20047;-80
2022/04/02 12:52:51;;;;;;;4.07;0.68;;;8.10;56.50;;;;;;5130182;27;20050;-80
2022/04/02 12:55:29;;;;;;;1.65;0.50;;;8.10;56.00;;;;;;5095003;27;20042;-80
2022/04/02 12:58:10;;;;;;;0.65;0.38;;;8.00;56.40;;;;;;5110193;27;20181;-80
2022/04/02 13:00:44;;;;;;;2.10;0.52;;;7.90;57.10;;;;;;5130439;27;20065;-80
2022/04/02 13:03:21;;;;;;;2.97;0.50;;;8.10;58.20;;;;;;5110798;27;20498;-80
2022/04/02 13:05:51;;;;;;;5.38;0.40;;;8.30;56.10;;;;;;5129457;27;20043;-81
2022/04/02 13:08:17;;;;;;;2.75;0.50;;;8.60;55.20;;;;;;5095422;27;20039;-80
2022/04/02 13:10:46;;;;;;;3.25;0.50;;;9.70;53.80;;;;;;5110156;27;20405;-77
2022/04/02 13:13:15;;;;;;;0.70;0.52;;;9.00;53.80;;;;;;5111610;27;20047;-84
2022/04/02 13:15:51;;;;;;;4.80;0.50;;;8.50;53.50;;;;;;5128592;27;20046;-81
2022/04/02 13:21:08;;;;;;;1.52;0.30;;;8.60;52.70;;;;;;5097275;27;20050;-80
2022/04/02 13:23:54;;;;;;;2.58;0.68;;;8.60;52.40;;;;;;5128160;27;20079;-80
2022/04/02 13:26:31;;;;;;;1.55;0.35;;;8.70;51.30;;;;;;5129353;27;20047;-79